createdAt,value
2022-12-14T00:01:41.938Z,26.30
2022-12-14T00:11:46.366Z,26.15
2022-12-14T00:21:47.635Z,25.73
2022-12-14T00:31:49.137Z,25.81
2022-12-14T00:41:50.455Z,25.45
2022-12-14T00:51:51.747Z,25.65
2022-12-14T01:01:53.074Z,25.38
2022-12-14T01:11:54.444Z,25.75
2022-12-14T01:21:55.697Z,25.09
2022-12-14T01:31:56.922Z,24.76
2022-12-14T01:41:58.149Z,25.11
2022-12-14T01:51:59.429Z,25.08
2022-12-14T02:02:00.759Z,24.71
2022-12-14T02:12:02.093Z,24.97
2022-12-14T02:22:03.313Z,24.92
2022-12-14T02:32:04.543Z,24.70
2022-12-14T02:42:05.892Z,25.10
2022-12-14T02:52:07.172Z,24.61
2022-12-14T03:02:08.541Z,24.89
2022-12-14T03:12:10.015Z,24.58
2022-12-14T03:22:11.279Z,24.60
2022-12-14T03:32:12.554Z,25.12
2022-12-14T03:42:13.827Z,24.28
2022-12-14T03:52:15.087Z,24.41
2022-12-14T04:02:16.500Z,24.26
2022-12-14T04:12:17.881Z,25.40
2022-12-14T04:22:19.153Z,24.68
2022-12-14T04:32:20.468Z,24.60
2022-12-14T04:42:21.776Z,24.62
2022-12-14T04:52:22.984Z,24.90
2022-12-14T05:02:24.354Z,24.52
2022-12-14T05:12:25.650Z,24.98
2022-12-14T05:22:26.861Z,25.07
2022-12-14T05:32:28.961Z,25.27
2022-12-14T05:42:33.062Z,25.09
2022-12-14T05:52:34.777Z,24.80
2022-12-14T06:02:36.169Z,25.21
2022-12-14T06:22:52.708Z,25.06
2022-12-14T06:32:57.664Z,26.08
2022-12-14T06:43:01.805Z,27.06
2022-12-14T06:53:03.448Z,27.96
2022-12-14T07:03:06.414Z,28.39
2022-12-14T07:13:08.217Z,28.37
2022-12-14T07:23:10.815Z,28.52
2022-12-14T07:33:12.243Z,28.55
2022-12-14T07:43:20.763Z,28.20
2022-12-14T07:53:22.150Z,28.20
2022-12-14T08:03:39.561Z,28.39
2022-12-14T08:34:35.925Z,28.50
2022-12-14T08:44:40.882Z,28.23
2022-12-14T09:15:44.178Z,28.66
2022-12-14T09:25:51.789Z,29.33
2022-12-14T09:35:53.352Z,29.49
2022-12-14T09:45:54.952Z,29.60
2022-12-14T09:55:57.571Z,29.82
2022-12-14T10:05:59.114Z,30.13
2022-12-14T10:16:00.591Z,30.13
2022-12-14T10:26:10.644Z,30.52
2022-12-14T10:36:12.363Z,30.41
2022-12-14T10:46:14.589Z,30.39
2022-12-14T10:56:17.812Z,30.36
2022-12-14T11:06:25.756Z,30.83
2022-12-14T11:16:36.658Z,30.80
2022-12-14T11:26:44.978Z,30.88
2022-12-14T11:36:52.986Z,30.40
2022-12-14T11:47:00.829Z,30.33
2022-12-14T11:57:08.764Z,29.83
2022-12-14T12:07:16.794Z,30.06
2022-12-14T12:17:24.836Z,30.18
2022-12-14T12:27:32.872Z,29.87
2022-12-14T12:37:40.781Z,30.03
2022-12-14T12:47:48.904Z,29.97
2022-12-14T12:57:56.793Z,29.68
2022-12-14T13:08:05.867Z,29.77
2022-12-14T13:18:33.906Z,29.64
2022-12-14T13:39:09.474Z,29.67
2022-12-14T14:10:04.044Z,29.54
2022-12-14T14:30:35.027Z,29.23
2022-12-14T14:41:15.616Z,29.24
2022-12-14T15:12:01.992Z,28.67
2022-12-14T15:22:14.569Z,28.39
2022-12-14T15:32:47.404Z,27.42
2022-12-14T15:42:42.305Z,27.59
2022-12-14T15:52:43.824Z,27.28
2022-12-14T16:02:46.375Z,27.29
2022-12-14T16:12:48.186Z,26.58
2022-12-14T16:22:49.448Z,26.48
2022-12-14T16:32:51.131Z,26.52
2022-12-14T16:42:52.944Z,25.89
2022-12-14T16:52:54.587Z,26.08
2022-12-14T17:13:21.825Z,26.85
2022-12-14T17:23:23.353Z,25.73
2022-12-14T17:33:24.786Z,25.65
2022-12-14T17:43:26.562Z,25.46
2022-12-14T17:53:28.477Z,26.32
2022-12-14T18:03:30.714Z,26.13
2022-12-14T18:13:34.015Z,26.47
2022-12-14T18:23:35.938Z,26.28
2022-12-14T18:33:37.420Z,26.22
2022-12-14T18:43:43.457Z,25.94
2022-12-14T18:53:45.465Z,25.95
2022-12-14T19:03:46.901Z,25.73
2022-12-14T19:13:48.565Z,26.15
2022-12-14T19:23:50.165Z,26.17
2022-12-14T19:33:51.552Z,25.74
2022-12-14T19:43:52.965Z,25.80
2022-12-14T19:53:54.432Z,25.92
2022-12-14T20:03:56.059Z,25.87
2022-12-14T20:14:01.103Z,26.13
2022-12-14T20:34:33.436Z,25.75
2022-12-14T20:44:35.365Z,25.67
2022-12-14T20:54:36.929Z,26.13
2022-12-14T21:04:38.175Z,25.84
2022-12-14T21:14:39.722Z,26.38
2022-12-14T21:35:02.701Z,25.45
2022-12-14T21:45:04.034Z,25.60
2022-12-14T21:55:05.426Z,25.71
2022-12-14T22:05:06.805Z,24.62
2022-12-14T22:15:08.344Z,24.50
2022-12-14T22:25:10.982Z,24.67
2022-12-14T22:35:12.259Z,24.60
2022-12-14T22:45:13.832Z,24.13
2022-12-14T22:55:15.146Z,24.36
2022-12-14T23:05:16.554Z,24.23
2022-12-14T23:15:17.856Z,24.12
2022-12-14T23:25:19.118Z,24.11
2022-12-14T23:35:20.407Z,23.26
2022-12-14T23:45:21.637Z,23.62
2022-12-14T23:55:22.910Z,23.28
